Latest Coastal Weather Observations for Cape Leeuwin

IDW60701

Issued at 3:45 am WST Sunday 24 August 2014 (issued every 10 minutes, with the page automatically refreshed every 10 minutes)

About coastal observations | Map of coastal stations | Coastal observations for WA | Marine services | Other Formats
Station Details ID: 009518 Name: CAPE LEEUWIN Lat: -34.37 Lon: 115.14 Height: 13.0 m
Data from the previous 72 hours. | See also: Recent months at Cape Leeuwin
Date/Time
WST
Temp

°C
Wind Pressure Rain
since 9am
mm
Weather Cloud Vis
km
Sea
Height
m
Swell
Dir
 
Speed
knots
Gust
knots
hPa Trend Height
m
Period
s
Dir
24/03:30am 14.9 N 13 17 1017.7 - 1.6 - - - - - - -
24/03:00am 14.2 N 13 17 1018.0 - 1.6 - - - - - - -
24/02:30am 14.2 NNE 13 17 1018.1 - 1.6 - - - - - - -
24/02:00am 14.6 NNE 14 18 1018.3 - 1.6 - - - - - - -
24/01:30am 15.0 N 12 16 1018.6 - 1.6 - - - - - - -
24/01:00am 15.3 N 12 16 1019.2 - 1.6 - - - - - - -
24/12:30am 15.0 N 12 17 1019.3 - 1.6 - - - - - - -
24/12:00am 14.9 N 12 16 1019.3 - 1.6 - - - - - - -
 
Date/Time
WST
Temp

°C
Wind Pressure Rain
since 9am
mm
Weather Cloud Vis
km
Sea
Height
m
Swell
Dir
 
Speed
knots
Gust
knots
hPa Trend Height
m
Period
s
Dir
23/11:30pm 15.4 N 12 16 1019.5 - 1.6 - - - - - - -
23/11:00pm 15.3 N 10 14 1019.8 - 1.6 - - - - - - -
23/10:30pm 15.3 N 11 14 1020.1 - 1.6 - - - - - - -
23/10:00pm 15.2 N 10 14 1020.2 - 1.6 - - - - - - -
23/09:30pm 15.0 N 11 13 1020.2 - 1.6 - - - - - - -
23/09:00pm 15.7 N 10 13 1020.5 - 1.6 - - - - - - -
23/08:30pm 16.0 N 10 15 1020.6 - 1.6 - - - - - - -
23/08:00pm 15.4 N 9 13 1020.7 - 1.6 - - - - - - -
23/07:30pm 15.6 N 11 15 1020.5 - 1.6 - - - - - - -
23/07:00pm 15.6 N 12 15 1020.4 - 1.6 - - - - - - -
23/06:30pm 15.9 N 11 16 1020.3 - 1.6 - - - - - - -
23/06:00pm 16.6 N 10 15 1020.1 - 1.6 - - - - - - -
23/05:30pm 17.1 N 11 14 1020.0 - 1.6 - - - - - - -
23/05:00pm 17.6 N 13 19 1019.7 - 1.6 - - - - - - -
23/04:30pm 18.0 NNW 17 23 1019.6 - 1.6 - - - - - - -
23/04:00pm 18.4 NNW 22 27 1019.5 - 1.6 - - - - - - -
23/03:30pm 18.6 NNW 20 26 1019.5 - 1.6 - - - - - - -
23/03:00pm 18.7 NNW 19 25 1019.6 - 1.6 - - - - - - -
23/02:30pm 18.7 NNW 23 27 1019.8 - 1.6 - - - - - - -
23/02:00pm 18.5 NW 23 28 1020.0 - 1.6 - - - - - - -
23/01:30pm 18.2 NW 23 28 1020.2 - 1.4 - - - - - - -
23/01:00pm 18.2 NNW 23 27 1020.4 - 1.4 - - - - - - -
23/12:30pm 17.4 NW 21 26 1020.9 - 1.4 - - - - - - -
23/12:00pm 17.1 NNW 16 19 1021.3 - 1.4 - - - - - - -
23/11:30am 15.7 NNW 17 20 1021.7 - 1.4 - - - - - - -
23/11:28am 15.7 NNW 17 20 1021.7 - 1.4 - - - - - - -
23/11:21am 15.9 WNW 20 24 1021.7 - 1.4 - - - - - - -
23/11:00am 16.8 NNW 17 21 1021.8 - 1.4 - - - - - - -
23/10:30am 15.8 NW 19 25 1022.0 - 1.4 - - - - - - -
23/10:24am 15.7 NW 17 23 1022.0 - 1.4 - - - - - - -
23/10:00am 14.3 N 8 10 1022.3 - 0.6 - - - - - - -
23/09:30am 14.4 NNW 13 17 1022.4 - 0.0 - - - - - - -
23/09:00am 14.6 N 11 15 1022.0 - 0.2 - - - - - - -
23/08:30am 14.5 N 11 14 1022.1 - 0.2 - - - - - - -
23/08:00am 13.2 N 11 15 1021.9 - 0.2 - - - - - - -
23/07:30am 12.7 NNE 13 19 1021.8 - 0.2 - - - - - - -
23/07:00am 12.4 NNE 12 18 1021.4 - 0.2 - - - - - - -
23/06:30am 12.6 NNE 13 18 1021.4 - 0.2 - - - - - - -
23/06:00am 12.8 NNE 14 20 1021.4 - 0.2 - - - - - - -
23/05:30am 12.9 N 14 20 1021.6 - 0.2 - - - - - - -
23/05:00am 13.0 NNE 14 19 1021.4 - 0.2 - - - - - - -
23/04:30am 12.8 N 14 18 1021.4 - 0.2 - - - - - - -
23/04:00am 12.2 N 12 16 1021.1 - 0.2 - - - - - - -
23/03:30am 12.4 NNE 12 17 1021.1 - 0.2 - - - - - - -
23/03:00am 12.6 NNE 11 14 1021.3 - 0.2 - - - - - - -
23/02:30am 13.1 NNE 11 13 1021.4 - 0.2 - - - - - - -
23/02:00am 13.1 NNE 9 11 1021.8 - 0.2 - - - - - - -
23/01:30am 13.5 N 7 11 1022.0 - 0.2 - - - - - - -
23/01:00am 13.8 N 7 10 1022.0 - 0.2 - - - - - - -
23/12:30am 14.7 NNW 8 10 1022.2 - 0.2 - - - - - - -
23/12:00am 15.0 NNW 11 15 1022.5 - 0.2 - - - - - - -
 
Date/Time
WST
Temp

°C
Wind Pressure Rain
since 9am
mm
Weather Cloud Vis
km
Sea
Height
m
Swell
Dir
 
Speed
knots
Gust
knots
hPa Trend Height
m
Period
s
Dir
22/11:30pm 14.6 N 8 10 1022.7 - 0.2 - - - - - - -
22/11:00pm 14.5 N 9 11 1022.9 - 0.2 - - - - - - -
22/10:30pm 14.4 NNW 10 16 1023.2 - 0.2 - - - - - - -
22/10:00pm 15.3 NW 12 15 1023.5 - 0.2 - - - - - - -
22/09:30pm 15.8 WNW 16 19 1023.8 - 0.2 - - - - - - -
22/09:00pm 14.6 N 9 11 1023.8 - 0.2 - - - - - - -
22/08:30pm 15.4 NW 14 20 1023.6 - 0.2 - - - - - - -
22/08:00pm 15.5 NW 12 14 1023.4 - 0.2 - - - - - - -
22/07:30pm 14.2 NNW 8 10 1023.2 - 0.2 - - - - - - -
22/07:00pm 14.1 NNW 8 10 1023.0 - 0.2 - - - - - - -
22/06:30pm 14.2 NNW 9 10 1022.6 - 0.2 - - - - - - -
22/06:00pm 14.7 NNW 7 9 1022.3 - 0.2 - - - - - - -
22/05:30pm 15.7 WNW 8 10 1022.0 - 0.2 - - - - - - -
22/05:00pm 16.1 WNW 7 9 1021.8 - 0.2 - - - - - - -
22/04:30pm 16.2 W 9 11 1021.6 - 0.2 - - - - - - -
22/04:00pm 15.8 W 14 17 1021.5 - 0.2 - - - - - - -
22/03:30pm 15.8 WNW 12 17 1021.4 - 0.2 - - - - - - -
22/03:00pm 16.0 W 12 15 1021.4 - 0.2 - - - - - - -
22/02:30pm 17.2 WNW 9 13 1021.3 - 0.2 - - - - - - -
22/02:00pm 17.2 NW 9 10 1021.1 - 0.2 - - - - - - -
22/01:30pm 17.3 WNW 8 11 1021.2 - 0.2 - - - - - - -
22/01:00pm 17.0 WNW 7 9 1021.0 - 0.2 - - - - - - -
22/12:30pm 17.3 WNW 7 9 1021.2 - 0.2 - - - - - - -
22/12:00pm 16.9 WSW 7 8 1021.5 - 0.2 Recent precip. - - - - - -
22/11:30am 15.8 WSW 8 11 1021.5 - 0.0 - - - - - - -
22/11:00am 16.2 WSW 10 13 1021.6 - 0.0 - - - - - - -
22/10:30am 16.1 SW 12 17 1021.5 - 0.0 - - - - - - -
22/10:00am 15.4 WSW 15 19 1021.3 - 0.0 - - - - - - -
22/09:30am 15.1 WSW 18 22 1021.0 - 0.0 - - - - - - -
22/09:00am 15.0 WSW 19 23 1020.7 - 6.4 - - - - - - -
22/08:30am 14.7 WSW 19 23 1020.3 - 6.4 - - - - - - -
22/08:00am 14.8 WSW 19 24 1019.7 - 6.4 - - - - - - -
22/07:30am 14.5 WSW 20 23 1019.0 - 6.4 - - - - - - -
22/07:00am 14.4 WSW 20 25 1018.5 - 6.4 - - - - - - -
22/06:30am 14.2 WSW 22 26 1018.1 - 6.4 - - - - - - -
22/06:00am 13.8 WSW 22 26 1017.6 - 6.4 Recent precip. - - - - - -
22/05:30am 13.8 WSW 24 28 1017.1 - 6.4 - - - - - - -
22/05:00am 15.2 W 27 32 1016.3 - 6.2 - - - - - - -
22/04:30am 14.8 WSW 24 29 1015.8 - 6.2 - - - - - - -
22/04:00am 14.9 W 28 33 1015.5 - 6.2 - - - - - - -
22/03:30am 14.7 W 31 38 1015.1 - 6.2 - - - - - - -
22/03:00am 13.9 W 31 39 1014.9 - 6.2 - - - - - - -
22/02:30am 15.4 W 32 37 1014.3 - 6.2 - - - - - - -
22/02:00am 15.7 W 33 39 1014.0 - 6.2 - - - - - - -
22/01:30am 15.4 W 31 37 1013.4 - 6.2 - - - - - - -
22/01:00am 14.9 W 33 39 1012.9 - 6.2 - - - - - - -
22/12:30am 15.4 W 33 43 1012.4 - 6.2 - - - - - - -
22/12:00am 15.0 W 28 33 1012.5 - 6.2 Recent precip. - - - - - -
 
Date/Time
WST
Temp

°C
Wind Pressure Rain
since 9am
mm
Weather Cloud Vis
km
Sea
Height
m
Swell
Dir
 
Speed
knots
Gust
knots
hPa Trend Height
m
Period
s
Dir
21/11:30pm 14.3 W 35 41 1012.3 - 6.2 - - - - - - -
21/11:00pm 14.6 WNW 37 48 1011.7 - 5.2 - - - - - - -
21/10:58pm 16.0 WNW 36 48 1011.3 - 5.2 - - - - - - -
21/10:30pm 16.0 WNW 33 39 1011.3 - 5.2 - - - - - - -
21/10:00pm 15.1 WNW 37 46 1011.6 - 5.2 - - - - - - -
21/09:43pm 16.0 WNW 33 47 1011.1 - 4.8 - - - - - - -
21/09:30pm 16.3 WNW 32 38 1011.3 - 4.8 - - - - - - -
21/09:00pm 16.0 NW 29 35 1011.2 - 4.8 - - - - - - -
21/08:30pm 16.0 NW 33 42 1010.9 - 4.8 - - - - - - -
21/08:28pm 16.1 WNW 32 42 1010.8 - 4.8 - - - - - - -
21/08:23pm 15.9 NW 33 37 1010.8 - 4.8 - - - - - - -
21/08:00pm 15.5 WNW 23 31 1010.8 - 4.8 - - - - - - -
21/07:30pm 15.1 WNW 27 32 1011.0 - 0.8 - - - - - - -
21/07:29pm 15.2 W 27 31 1010.9 - 0.8 - - - - - - -
21/07:00pm 16.4 NW 24 29 1010.5 - 0.8 - - - - - - -
21/06:30pm 16.5 WNW 25 29 1010.1 - 0.8 - - - - - - -
21/06:00pm 16.3 WNW 24 30 1009.8 - 0.8 - - - - - - -
21/05:30pm 16.6 NW 25 29 1009.5 - 0.8 - - - - - - -
21/05:00pm 17.1 WNW 24 28 1009.3 - 0.8 - - - - - - -
21/04:30pm 16.9 WNW 23 27 1009.1 - 0.8 - - - - - - -
21/04:00pm 17.4 WNW 21 27 1009.0 - 0.8 - - - - - - -
21/03:30pm 17.0 W 26 34 1009.0 - 0.8 - - - - - - -
21/03:00pm 17.5 WNW 25 30 1008.7 - 0.8 - - - - - - -
21/02:30pm 17.5 WNW 28 32 1008.6 - 0.8 - - - - - - -
21/02:00pm 16.7 WNW 19 29 1008.3 - 0.8 - - - - - - -
21/01:58pm 16.3 WNW 17 28 1008.4 - 0.8 - - - - - - -
21/01:30pm 15.3 NW 23 27 1008.6 - 0.8 - - - - - - -
21/01:18pm 15.9 WNW 25 35 1008.6 - 0.8 - - - - - - -
21/01:00pm 15.8 W 24 32 1008.4 - 0.8 - - - - - - -
21/12:37pm 16.9 WNW 23 33 1007.9 - 0.6 - - - - - - -
21/12:30pm 16.9 W 21 25 1008.2 - 0.6 - - - - - - -
21/12:00pm 15.9 W 22 29 1008.3 - 0.6 Recent precip. - - - - - -
21/11:30am 15.4 W 22 25 1008.4 - 0.6 - - - - - - -
21/11:23am 14.9 W 23 25 1008.5 - 0.6 - - - - - - -
21/11:00am 16.2 NW 19 21 1008.4 - 0.2 - - - - - - -
21/10:30am 15.0 WNW 20 23 1008.6 - 0.2 - - - - - - -
21/10:00am 15.6 W 25 31 1008.1 - 0.0 - - - - - - -
21/09:30am 15.8 W 24 28 1007.7 - 0.0 - - - - - - -
21/09:00am 15.2 W 23 28 1007.3 - 7.4 Recent precip. - - - - - -
21/08:30am 15.8 W 29 33 1006.6 - 7.2 - - - - - - -
21/08:26am 16.3 W 27 31 1006.5 - 6.8 - - - - - - -
21/08:24am 17.0 WNW 30 42 1006.1 - 6.8 - - - - - - -
21/08:00am 17.4 WNW 30 36 1005.7 - 6.8 - - - - - - -
21/07:30am 17.3 WNW 32 37 1005.4 - 6.8 - - - - - - -
21/07:00am 17.1 WNW 33 39 1005.0 - 6.8 - - - - - - -
21/06:30am 17.1 WNW 36 41 1004.3 - 6.8 - - - - - - -
21/06:00am 17.2 WNW 35 41 1003.7 - 6.8 - - - - - - -
21/05:30am 17.0 WNW 35 44 1003.4 - 6.8 - - - - - - -
21/05:00am 16.9 WNW 35 44 1003.4 - 6.8 - - - - - - -
21/04:39am 16.6 WNW 31 41 1003.4 - 6.8 - - - - - - -
21/04:30am 16.4 WNW 32 41 1003.6 - 6.8 - - - - - - -
21/04:24am 17.4 WNW 30 41 1003.4 - 6.8 - - - - - - -
21/04:00am 17.5 NW 23 28 1003.5 - 6.8 - - - - - - -

Other Formats:

Comma delimited format used in spreadsheet applications
http://www.bom.gov.au/fwo/IDW60701/IDW60701.94601.axf

JavaScript Object Notation format (JSON) in row-major order
http://www.bom.gov.au/fwo/IDW60701/IDW60701.94601.json